sensor_id;sensor_type;location;lat;lon;timestamp;temperature;humidity
71523;HTU21D;59343;51.102;5.884;2023-05-07T00:01:47;17.14;80.42
71523;HTU21D;59343;51.102;5.884;2023-05-07T00:04:13;17.13;80.52
71523;HTU21D;59343;51.102;5.884;2023-05-07T00:06:39;17.11;80.69
71523;HTU21D;59343;51.102;5.884;2023-05-07T00:09:06;17.11;80.78
71523;HTU21D;59343;51.102;5.884;2023-05-07T00:11:33;17.11;80.77
71523;HTU21D;59343;51.102;5.884;2023-05-07T00:13:59;17.10;80.84
71523;HTU21D;59343;51.102;5.884;2023-05-07T00:16:25;17.09;80.86
71523;HTU21D;59343;51.102;5.884;2023-05-07T00:18:52;17.08;80.92
71523;HTU21D;59343;51.102;5.884;2023-05-07T00:21:18;17.08;81.07
71523;HTU21D;59343;51.102;5.884;2023-05-07T00:23:44;17.09;81.10
71523;HTU21D;59343;51.102;5.884;2023-05-07T00:26:10;17.08;81.15
71523;HTU21D;59343;51.102;5.884;2023-05-07T00:28:36;17.07;81.21
71523;HTU21D;59343;51.102;5.884;2023-05-07T00:31:02;17.06;81.26
71523;HTU21D;59343;51.102;5.884;2023-05-07T00:33:28;17.07;81.30
71523;HTU21D;59343;51.102;5.884;2023-05-07T00:35:54;17.09;81.23
71523;HTU21D;59343;51.102;5.884;2023-05-07T00:38:20;17.09;81.23
71523;HTU21D;59343;51.102;5.884;2023-05-07T00:40:46;17.11;81.27
71523;HTU21D;59343;51.102;5.884;2023-05-07T00:43:12;17.10;81.29
71523;HTU21D;59343;51.102;5.884;2023-05-07T00:45:39;17.10;81.21
71523;HTU21D;59343;51.102;5.884;2023-05-07T00:48:05;17.14;81.23
71523;HTU21D;59343;51.102;5.884;2023-05-07T00:50:31;17.13;81.25
71523;HTU21D;59343;51.102;5.884;2023-05-07T00:52:58;17.13;81.23
71523;HTU21D;59343;51.102;5.884;2023-05-07T00:55:25;17.10;81.32
71523;HTU21D;59343;51.102;5.884;2023-05-07T00:57:51;17.09;81.47
71523;HTU21D;59343;51.102;5.884;2023-05-07T01:00:18;17.07;81.41
71523;HTU21D;59343;51.102;5.884;2023-05-07T01:02:45;17.06;81.46
71523;HTU21D;59343;51.102;5.884;2023-05-07T01:05:15;17.06;81.43
71523;HTU21D;59343;51.102;5.884;2023-05-07T01:07:43;17.06;81.36
71523;HTU21D;59343;51.102;5.884;2023-05-07T01:10:10;17.03;81.37
71523;HTU21D;59343;51.102;5.884;2023-05-07T01:12:39;17.01;81.55
71523;HTU21D;59343;51.102;5.884;2023-05-07T01:15:08;17.00;81.61
71523;HTU21D;59343;51.102;5.884;2023-05-07T01:17:40;16.99;81.52
71523;HTU21D;59343;51.102;5.884;2023-05-07T01:20:10;16.98;81.51
71523;HTU21D;59343;51.102;5.884;2023-05-07T01:22:38;16.96;81.57
71523;HTU21D;59343;51.102;5.884;2023-05-07T01:25:06;16.95;81.58
71523;HTU21D;59343;51.102;5.884;2023-05-07T01:27:34;16.94;81.60
71523;HTU21D;59343;51.102;5.884;2023-05-07T01:30:06;16.93;81.60
71523;HTU21D;59343;51.102;5.884;2023-05-07T01:32:44;16.91;81.59
71523;HTU21D;59343;51.102;5.884;2023-05-07T01:35:15;16.92;81.60
71523;HTU21D;59343;51.102;5.884;2023-05-07T01:37:43;16.91;81.59
71523;HTU21D;59343;51.102;5.884;2023-05-07T01:40:10;16.90;81.59
71523;HTU21D;59343;51.102;5.884;2023-05-07T01:42:37;16.87;81.61
71523;HTU21D;59343;51.102;5.884;2023-05-07T01:45:03;16.82;81.70
71523;HTU21D;59343;51.102;5.884;2023-05-07T01:47:30;16.80;81.72
71523;HTU21D;59343;51.102;5.884;2023-05-07T01:49:57;16.78;81.81
71523;HTU21D;59343;51.102;5.884;2023-05-07T01:52:24;16.76;81.81
71523;HTU21D;59343;51.102;5.884;2023-05-07T01:54:51;16.74;81.81
71523;HTU21D;59343;51.102;5.884;2023-05-07T01:57:17;16.74;81.82
71523;HTU21D;59343;51.102;5.884;2023-05-07T01:59:43;16.72;81.88
71523;HTU21D;59343;51.102;5.884;2023-05-07T02:02:09;16.70;81.87
71523;HTU21D;59343;51.102;5.884;2023-05-07T02:04:36;16.66;81.84
71523;HTU21D;59343;51.102;5.884;2023-05-07T02:07:02;16.66;81.88
71523;HTU21D;59343;51.102;5.884;2023-05-07T02:09:29;16.62;81.96
71523;HTU21D;59343;51.102;5.884;2023-05-07T02:11:55;16.59;82.03
71523;HTU21D;59343;51.102;5.884;2023-05-07T02:14:22;16.55;82.13
71523;HTU21D;59343;51.102;5.884;2023-05-07T02:16:48;16.54;82.26
71523;HTU21D;59343;51.102;5.884;2023-05-07T02:19:15;16.51;82.43
71523;HTU21D;59343;51.102;5.884;2023-05-07T02:21:41;16.49;82.60
71523;HTU21D;59343;51.102;5.884;2023-05-07T02:24:07;16.50;82.68
71523;HTU21D;59343;51.102;5.884;2023-05-07T02:26:33;16.49;82.82
71523;HTU21D;59343;51.102;5.884;2023-05-07T02:29:00;16.48;82.94
71523;HTU21D;59343;51.102;5.884;2023-05-07T02:31:26;16.49;83.02
71523;HTU21D;59343;51.102;5.884;2023-05-07T02:33:52;16.50;83.00
71523;HTU21D;59343;51.102;5.884;2023-05-07T02:36:18;16.50;82.99
71523;HTU21D;59343;51.102;5.884;2023-05-07T02:38:54;16.49;83.04
71523;HTU21D;59343;51.102;5.884;2023-05-07T02:41:20;16.50;83.01
71523;HTU21D;59343;51.102;5.884;2023-05-07T02:43:46;16.50;83.04
71523;HTU21D;59343;51.102;5.884;2023-05-07T02:46:13;16.51;82.98
71523;HTU21D;59343;51.102;5.884;2023-05-07T02:48:43;16.52;82.97
71523;HTU21D;59343;51.102;5.884;2023-05-07T02:51:10;16.52;82.94
71523;HTU21D;59343;51.102;5.884;2023-05-07T02:53:38;16.51;82.96
71523;HTU21D;59343;51.102;5.884;2023-05-07T02:56:05;16.54;82.87
71523;HTU21D;59343;51.102;5.884;2023-05-07T02:58:32;16.55;82.84
71523;HTU21D;59343;51.102;5.884;2023-05-07T03:01:00;16.55;82.84
71523;HTU21D;59343;51.102;5.884;2023-05-07T03:04:05;16.56;82.82
71523;HTU21D;59343;51.102;5.884;2023-05-07T03:06:31;16.54;82.75
71523;HTU21D;59343;51.102;5.884;2023-05-07T03:08:57;16.54;82.74
71523;HTU21D;59343;51.102;5.884;2023-05-07T03:11:23;16.52;82.87
71523;HTU21D;59343;51.102;5.884;2023-05-07T03:13:49;16.52;82.94
71523;HTU21D;59343;51.102;5.884;2023-05-07T03:16:18;16.51;82.96
71523;HTU21D;59343;51.102;5.884;2023-05-07T03:18:44;16.51;83.00
71523;HTU21D;59343;51.102;5.884;2023-05-07T03:21:10;16.51;83.04
71523;HTU21D;59343;51.102;5.884;2023-05-07T03:23:36;16.50;82.94
71523;HTU21D;59343;51.102;5.884;2023-05-07T03:26:03;16.51;82.87
71523;HTU21D;59343;51.102;5.884;2023-05-07T03:28:29;16.51;82.82
71523;HTU21D;59343;51.102;5.884;2023-05-07T03:31:00;16.52;82.87
71523;HTU21D;59343;51.102;5.884;2023-05-07T03:33:26;16.50;82.91
71523;HTU21D;59343;51.102;5.884;2023-05-07T03:35:54;16.49;82.84
71523;HTU21D;59343;51.102;5.884;2023-05-07T03:38:23;16.48;82.80
71523;HTU21D;59343;51.102;5.884;2023-05-07T03:40:50;16.47;82.75
71523;HTU21D;59343;51.102;5.884;2023-05-07T03:43:17;16.45;82.80
71523;HTU21D;59343;51.102;5.884;2023-05-07T03:45:47;16.45;82.81
71523;HTU21D;59343;51.102;5.884;2023-05-07T03:48:21;16.44;82.85
71523;HTU21D;59343;51.102;5.884;2023-05-07T03:50:49;16.43;82.97
71523;HTU21D;59343;51.102;5.884;2023-05-07T03:53:17;16.41;82.96
71523;HTU21D;59343;51.102;5.884;2023-05-07T03:55:43;16.42;82.96
71523;HTU21D;59343;51.102;5.884;2023-05-07T03:58:09;16.40;83.03
71523;HTU21D;59343;51.102;5.884;2023-05-07T04:00:36;16.37;82.97
71523;HTU21D;59343;51.102;5.884;2023-05-07T04:03:13;16.35;82.91
71523;HTU21D;59343;51.102;5.884;2023-05-07T04:05:40;16.33;82.88
71523;HTU21D;59343;51.102;5.884;2023-05-07T04:08:07;16.31;82.83
71523;HTU21D;59343;51.102;5.884;2023-05-07T04:10:40;16.29;82.87
71523;HTU21D;59343;51.102;5.884;2023-05-07T04:13:09;16.28;82.90
71523;HTU21D;59343;51.102;5.884;2023-05-07T04:15:36;16.26;82.95
71523;HTU21D;59343;51.102;5.884;2023-05-07T04:18:05;16.26;83.02
71523;HTU21D;59343;51.102;5.884;2023-05-07T04:20:34;16.25;83.11
71523;HTU21D;59343;51.102;5.884;2023-05-07T04:23:03;16.28;83.00
71523;HTU21D;59343;51.102;5.884;2023-05-07T04:29:27;16.25;82.94
71523;HTU21D;59343;51.102;5.884;2023-05-07T04:32:06;16.26;83.05
71523;HTU21D;59343;51.102;5.884;2023-05-07T04:43:41;16.41;82.71
71523;HTU21D;59343;51.102;5.884;2023-05-07T04:46:21;16.45;82.49
71523;HTU21D;59343;51.102;5.884;2023-05-07T04:49:21;16.49;82.33
71523;HTU21D;59343;51.102;5.884;2023-05-07T04:53:37;16.58;82.18
71523;HTU21D;59343;51.102;5.884;2023-05-07T04:56:35;16.64;81.84
71523;HTU21D;59343;51.102;5.884;2023-05-07T04:59:03;16.70;81.69
71523;HTU21D;59343;51.102;5.884;2023-05-07T05:01:34;16.74;81.68
71523;HTU21D;59343;51.102;5.884;2023-05-07T13:46:42;22.31;65.43
71523;HTU21D;59343;51.102;5.884;2023-05-07T13:50:00;22.32;64.79
71523;HTU21D;59343;51.102;5.884;2023-05-07T13:52:44;22.34;64.93
71523;HTU21D;59343;51.102;5.884;2023-05-07T13:55:17;22.42;64.67
71523;HTU21D;59343;51.102;5.884;2023-05-07T13:57:44;22.48;63.92
71523;HTU21D;59343;51.102;5.884;2023-05-07T14:00:11;22.49;63.37
71523;HTU21D;59343;51.102;5.884;2023-05-07T14:02:42;22.50;63.28
71523;HTU21D;59343;51.102;5.884;2023-05-07T14:05:09;22.55;63.41
71523;HTU21D;59343;51.102;5.884;2023-05-07T14:07:36;22.61;62.80
71523;HTU21D;59343;51.102;5.884;2023-05-07T14:10:02;22.68;62.44
71523;HTU21D;59343;51.102;5.884;2023-05-07T14:12:32;22.70;62.07
71523;HTU21D;59343;51.102;5.884;2023-05-07T14:14:58;22.72;61.51
71523;HTU21D;59343;51.102;5.884;2023-05-07T14:17:24;22.71;61.16
71523;HTU21D;59343;51.102;5.884;2023-05-07T14:19:53;22.72;60.99
71523;HTU21D;59343;51.102;5.884;2023-05-07T14:22:20;22.70;61.38
71523;HTU21D;59343;51.102;5.884;2023-05-07T14:24:47;22.67;61.47
71523;HTU21D;59343;51.102;5.884;2023-05-07T14:27:12;22.65;61.19
71523;HTU21D;59343;51.102;5.884;2023-05-07T14:29:38;22.69;60.61
71523;HTU21D;59343;51.102;5.884;2023-05-07T14:32:04;22.69;60.49
71523;HTU21D;59343;51.102;5.884;2023-05-07T14:34:31;22.72;60.65
71523;HTU21D;59343;51.102;5.884;2023-05-07T14:36:57;22.77;60.41
71523;HTU21D;59343;51.102;5.884;2023-05-07T14:39:23;22.82;60.43
71523;HTU21D;59343;51.102;5.884;2023-05-07T14:41:49;22.84;60.35
71523;HTU21D;59343;51.102;5.884;2023-05-07T14:44:15;22.86;60.47
71523;HTU21D;59343;51.102;5.884;2023-05-07T14:46:40;22.90;60.47
71523;HTU21D;59343;51.102;5.884;2023-05-07T14:49:06;22.93;60.31
71523;HTU21D;59343;51.102;5.884;2023-05-07T14:51:34;22.93;60.41
71523;HTU21D;59343;51.102;5.884;2023-05-07T14:54:00;22.98;60.74
71523;HTU21D;59343;51.102;5.884;2023-05-07T14:56:27;22.94;60.21
71523;HTU21D;59343;51.102;5.884;2023-05-07T14:58:53;22.94;60.37
71523;HTU21D;59343;51.102;5.884;2023-05-07T15:01:20;22.87;60.36
71523;HTU21D;59343;51.102;5.884;2023-05-07T15:03:46;22.79;60.82
71523;HTU21D;59343;51.102;5.884;2023-05-07T15:06:11;22.83;61.44
71523;HTU21D;59343;51.102;5.884;2023-05-07T15:08:37;22.83;61.54
71523;HTU21D;59343;51.102;5.884;2023-05-07T15:11:03;22.83;61.39
71523;HTU21D;59343;51.102;5.884;2023-05-07T15:13:29;22.86;61.32
71523;HTU21D;59343;51.102;5.884;2023-05-07T15:15:55;22.86;61.32
71523;HTU21D;59343;51.102;5.884;2023-05-07T15:18:21;22.88;61.57
71523;HTU21D;59343;51.102;5.884;2023-05-07T15:20:46;22.86;61.86
71523;HTU21D;59343;51.102;5.884;2023-05-07T15:23:12;22.76;61.84
71523;HTU21D;59343;51.102;5.884;2023-05-07T15:25:42;22.61;62.47
71523;HTU21D;59343;51.102;5.884;2023-05-07T15:28:07;22.62;63.16
71523;HTU21D;59343;51.102;5.884;2023-05-07T15:30:34;22.72;63.24
71523;HTU21D;59343;51.102;5.884;2023-05-07T15:33:01;22.83;62.70
71523;HTU21D;59343;51.102;5.884;2023-05-07T15:35:28;22.93;62.15
71523;HTU21D;59343;51.102;5.884;2023-05-07T15:37:54;22.96;61.62
71523;HTU21D;59343;51.102;5.884;2023-05-07T15:40:22;22.97;61.81
71523;HTU21D;59343;51.102;5.884;2023-05-07T15:42:49;22.97;61.48
71523;HTU21D;59343;51.102;5.884;2023-05-07T15:45:15;22.99;61.21
71523;HTU21D;59343;51.102;5.884;2023-05-07T15:47:40;22.99;61.51
71523;HTU21D;59343;51.102;5.884;2023-05-07T15:50:07;22.94;61.67
71523;HTU21D;59343;51.102;5.884;2023-05-07T15:52:32;22.96;61.88
71523;HTU21D;59343;51.102;5.884;2023-05-07T15:54:58;22.98;61.82
71523;HTU21D;59343;51.102;5.884;2023-05-07T15:57:43;22.96;61.79
71523;HTU21D;59343;51.102;5.884;2023-05-07T16:00:10;22.88;62.24
71523;HTU21D;59343;51.102;5.884;2023-05-07T16:02:40;22.85;62.73
71523;HTU21D;59343;51.102;5.884;2023-05-07T16:05:06;22.82;63.07
71523;HTU21D;59343;51.102;5.884;2023-05-07T16:07:35;22.83;63.34
71523;HTU21D;59343;51.102;5.884;2023-05-07T16:10:03;22.80;63.65
71523;HTU21D;59343;51.102;5.884;2023-05-07T16:12:29;22.76;63.85
71523;HTU21D;59343;51.102;5.884;2023-05-07T16:14:55;22.76;64.14
71523;HTU21D;59343;51.102;5.884;2023-05-07T16:17:21;22.75;64.34
71523;HTU21D;59343;51.102;5.884;2023-05-07T16:19:46;22.71;64.54
71523;HTU21D;59343;51.102;5.884;2023-05-07T16:22:12;22.55;64.85
71523;HTU21D;59343;51.102;5.884;2023-05-07T16:24:38;22.54;65.26
71523;HTU21D;59343;51.102;5.884;2023-05-07T16:27:04;22.49;65.81
71523;HTU21D;59343;51.102;5.884;2023-05-07T16:29:31;22.49;65.82
71523;HTU21D;59343;51.102;5.884;2023-05-07T16:31:57;22.48;65.80
71523;HTU21D;59343;51.102;5.884;2023-05-07T16:34:23;22.48;65.66
71523;HTU21D;59343;51.102;5.884;2023-05-07T16:36:59;22.49;65.78
71523;HTU21D;59343;51.102;5.884;2023-05-07T16:55:10;21.97;67.23
